Time;durP1;ratioP1;P1;durP2;ratioP2;P2;SDS_P1;SDS_P2;PMS_P1;PMS_P2;Temp;Humidity;BMP_temperature;BMP_pressure;BME280_temperature;BME280_humidity;BME280_pressure;Samples;Min_cycle;Max_cycle;Signal;HPM_P1;HPM_P2
2021/05/09 00:00:19;;;;;;;5.55;2.53;;;13.20;82.10;;;;;;5083572;28;20031;-80
2021/05/09 00:02:45;;;;;;;6.50;2.92;;;13.20;82.20;;;;;;5092979;28;20109;-79
2021/05/09 00:05:11;;;;;;;6.55;2.80;;;13.10;82.20;;;;;;5081783;28;20127;-80
2021/05/09 00:07:37;;;;;;;6.15;2.65;;;13.10;82.20;;;;;;5092146;28;20444;-79
2021/05/09 00:10:05;;;;;;;4.57;2.60;;;13.00;82.30;;;;;;5074652;28;20123;-80
2021/05/09 00:12:30;;;;;;;9.57;2.83;;;13.00;82.60;;;;;;5087422;28;20035;-80
2021/05/09 00:14:56;;;;;;;6.97;2.58;;;12.90;82.60;;;;;;5091353;28;20032;-79
2021/05/09 00:17:21;;;;;;;5.07;2.95;;;12.90;82.70;;;;;;5069420;28;20037;-79
2021/05/09 00:19:47;;;;;;;6.55;2.80;;;12.90;82.80;;;;;;5073577;28;20052;-79
2021/05/09 00:22:13;;;;;;;6.30;2.97;;;12.90;82.90;;;;;;5089468;28;20033;-79
2021/05/09 00:24:39;;;;;;;5.05;3.22;;;12.90;83.00;;;;;;5094143;28;20024;-79
2021/05/09 00:27:05;;;;;;;8.00;3.55;;;12.90;83.00;;;;;;5093489;28;20032;-80
2021/05/09 00:29:30;;;;;;;7.40;3.40;;;12.90;83.00;;;;;;5095867;28;20025;-80
2021/05/09 00:31:56;;;;;;;6.22;3.42;;;12.90;83.60;;;;;;5072157;28;20093;-80
2021/05/09 00:34:22;;;;;;;6.03;3.08;;;12.90;82.90;;;;;;5075969;28;20032;-80
2021/05/09 00:36:48;;;;;;;7.82;2.92;;;12.90;82.90;;;;;;5095682;28;20084;-79
2021/05/09 00:39:13;;;;;;;5.32;3.45;;;12.90;83.00;;;;;;5095688;28;20092;-80
2021/05/09 00:41:39;;;;;;;6.82;3.60;;;12.90;83.00;;;;;;5077558;28;20055;-79
2021/05/09 00:44:05;;;;;;;11.52;3.38;;;12.90;83.00;;;;;;5087466;28;20037;-80
2021/05/09 00:46:30;;;;;;;7.72;3.92;;;12.90;83.00;;;;;;5092761;28;20036;-80
2021/05/09 00:48:57;;;;;;;9.02;3.42;;;12.90;83.00;;;;;;5076046;28;20039;-80
2021/05/09 00:51:23;;;;;;;6.93;3.60;;;13.00;83.00;;;;;;5079581;28;20477;-80
2021/05/09 00:53:51;;;;;;;5.65;3.53;;;13.00;82.90;;;;;;5075882;28;20165;-80
2021/05/09 00:56:18;;;;;;;9.02;4.10;;;13.00;82.90;;;;;;5085930;28;20365;-80
2021/05/09 00:58:46;;;;;;;8.55;4.07;;;13.00;83.70;;;;;;5072505;28;20112;-79
2021/05/09 01:01:13;;;;;;;11.00;4.10;;;13.00;82.90;;;;;;5086138;28;20062;-80
2021/05/09 01:03:42;;;;;;;9.02;3.97;;;13.00;82.90;;;;;;5095135;28;20043;-80
2021/05/09 01:06:08;;;;;;;9.57;4.60;;;13.00;83.00;;;;;;5094944;28;20038;-79
2021/05/09 01:08:35;;;;;;;8.73;4.13;;;13.00;82.90;;;;;;5095038;28;20041;-79
2021/05/09 01:11:03;;;;;;;8.98;4.22;;;13.00;82.90;;;;;;5095271;28;20028;-79
2021/05/09 01:13:28;;;;;;;8.60;3.95;;;13.00;82.90;;;;;;5083475;28;20107;-79
2021/05/09 01:15:54;;;;;;;7.95;4.03;;;13.00;82.90;;;;;;5075145;28;20116;-79
2021/05/09 01:18:20;;;;;;;7.50;4.10;;;13.00;82.80;;;;;;5104117;28;20032;-79
2021/05/09 01:20:45;;;;;;;7.03;3.65;;;13.00;82.90;;;;;;5056546;28;20036;-79
2021/05/09 01:23:11;;;;;;;6.75;3.92;;;13.00;82.90;;;;;;5093095;28;20032;-79
2021/05/09 01:25:37;;;;;;;8.52;4.10;;;12.90;82.90;;;;;;5099885;28;20107;-79
2021/05/09 01:28:03;;;;;;;8.43;4.47;;;12.90;83.00;;;;;;5089330;28;20435;-80
2021/05/09 01:30:29;;;;;;;6.90;4.13;;;13.00;83.20;;;;;;5094447;28;20545;-80
2021/05/09 01:32:54;;;;;;;6.88;4.25;;;12.90;83.20;;;;;;5094468;28;20119;-80
2021/05/09 01:35:20;;;;;;;6.65;4.10;;;13.00;83.10;;;;;;5110507;28;20105;-80
2021/05/09 01:37:46;;;;;;;8.35;4.55;;;13.00;83.10;;;;;;5084211;28;20088;-79
2021/05/09 01:40:13;;;;;;;10.48;5.28;;;13.00;83.10;;;;;;5082841;28;20068;-80
2021/05/09 01:42:40;;;;;;;6.15;4.60;;;12.90;83.00;;;;;;5094114;28;20023;-80
2021/05/09 01:45:07;;;;;;;11.48;5.13;;;13.00;83.10;;;;;;5094506;28;20144;-80
2021/05/09 01:47:33;;;;;;;8.50;5.22;;;13.00;83.10;;;;;;5094316;28;20028;-80
2021/05/09 01:49:58;;;;;;;9.95;5.00;;;13.00;83.10;;;;;;5094198;28;20027;-80
2021/05/09 01:52:24;;;;;;;7.72;4.93;;;13.00;83.70;;;;;;5094510;28;20031;-79
2021/05/09 01:54:50;;;;;;;9.23;4.72;;;13.00;83.10;;;;;;5074403;28;20032;-79
2021/05/09 01:57:15;;;;;;;8.55;4.70;;;13.00;83.10;;;;;;5097092;28;20024;-79
2021/05/09 01:59:41;;;;;;;8.30;4.80;;;13.00;83.10;;;;;;5074552;28;20025;-79
2021/05/09 02:02:07;;;;;;;6.47;4.68;;;13.00;83.00;;;;;;5075416;28;20058;-79
2021/05/09 02:04:33;;;;;;;7.22;4.57;;;13.00;83.10;;;;;;5094309;28;20024;-80
2021/05/09 02:06:58;;;;;;;8.63;4.60;;;13.00;83.10;;;;;;5109581;28;20103;-80
2021/05/09 02:09:24;;;;;;;8.63;4.85;;;13.00;83.30;;;;;;5094323;28;20035;-79
2021/05/09 02:11:49;;;;;;;7.93;4.75;;;13.00;83.30;;;;;;5093353;28;20032;-79
2021/05/09 02:14:15;;;;;;;5.63;4.05;;;12.90;83.30;;;;;;5073743;28;20534;-79
2021/05/09 02:16:40;;;;;;;10.70;5.10;;;12.90;83.30;;;;;;5072755;28;20032;-79
2021/05/09 02:19:06;;;;;;;8.98;4.28;;;12.90;83.20;;;;;;5090405;28;20032;-79
2021/05/09 02:21:32;;;;;;;9.73;4.32;;;12.90;83.30;;;;;;5093998;28;20043;-80
2021/05/09 02:23:58;;;;;;;9.82;4.60;;;12.90;84.00;;;;;;5090539;28;20020;-79
2021/05/09 02:26:23;;;;;;;6.85;3.88;;;12.90;83.40;;;;;;5091996;28;20027;-79
2021/05/09 02:28:49;;;;;;;7.25;4.10;;;12.80;83.40;;;;;;5092006;28;20020;-79
2021/05/09 02:31:15;;;;;;;6.70;4.20;;;12.80;83.60;;;;;;5075535;28;20060;-79
2021/05/09 02:33:40;;;;;;;9.15;4.63;;;12.80;83.60;;;;;;5073417;28;20100;-79
2021/05/09 02:36:06;;;;;;;8.18;3.80;;;12.80;83.70;;;;;;5084890;28;20028;-79
2021/05/09 02:38:31;;;;;;;9.02;4.25;;;12.80;83.80;;;;;;5090496;28;20052;-79
2021/05/09 02:40:57;;;;;;;10.55;4.10;;;12.70;83.80;;;;;;5080387;28;20063;-79
2021/05/09 02:43:23;;;;;;;4.63;3.45;;;12.70;83.90;;;;;;5074586;28;22077;-79
2021/05/09 02:45:48;;;;;;;8.27;3.55;;;12.70;84.00;;;;;;5093729;28;20031;-79
2021/05/09 02:48:14;;;;;;;9.20;4.03;;;12.60;84.10;;;;;;5091497;28;20028;-79
2021/05/09 02:50:39;;;;;;;8.90;4.00;;;12.60;84.20;;;;;;5091537;28;20115;-79
2021/05/09 02:53:05;;;;;;;10.07;4.07;;;12.60;84.30;;;;;;5093107;28;20480;-80
2021/05/09 02:55:31;;;;;;;7.47;4.20;;;12.60;84.30;;;;;;5091124;28;20594;-79
2021/05/09 02:57:56;;;;;;;5.75;3.75;;;12.60;84.40;;;;;;5099321;28;20028;-79
2021/05/09 03:00:22;;;;;;;5.43;3.63;;;12.60;84.30;;;;;;5074435;28;20024;-79
2021/05/09 03:02:48;;;;;;;7.38;4.20;;;12.60;84.30;;;;;;5083961;28;20024;-79
2021/05/09 03:05:13;;;;;;;4.97;3.47;;;12.60;84.40;;;;;;5074403;28;20165;-79
2021/05/09 03:07:39;;;;;;;8.48;4.00;;;12.50;84.40;;;;;;5092730;28;20028;-79
2021/05/09 03:10:06;;;;;;;7.75;3.85;;;12.50;85.10;;;;;;5108742;28;20550;-80
2021/05/09 03:12:31;;;;;;;10.00;4.10;;;12.50;84.60;;;;;;5091014;28;20073;-80
2021/05/09 03:14:57;;;;;;;7.28;3.95;;;12.50;84.80;;;;;;5069679;28;20028;-80
2021/05/09 03:17:23;;;;;;;8.57;4.40;;;12.50;84.90;;;;;;5092740;28;20021;-79
2021/05/09 03:19:49;;;;;;;6.07;3.85;;;12.40;85.00;;;;;;5092356;28;20043;-80
2021/05/09 03:22:14;;;;;;;8.77;4.15;;;12.50;85.00;;;;;;5074576;28;20477;-79
2021/05/09 03:24:40;;;;;;;10.43;3.55;;;12.40;85.00;;;;;;5093001;28;20381;-80
2021/05/09 03:27:05;;;;;;;7.93;3.97;;;12.40;85.00;;;;;;5092286;28;20024;-80
2021/05/09 03:29:31;;;;;;;7.13;3.50;;;12.40;85.00;;;;;;5092976;28;20111;-79
2021/05/09 03:31:57;;;;;;;7.95;3.75;;;12.40;85.10;;;;;;5089036;28;20111;-79
2021/05/09 03:34:22;;;;;;;4.97;3.60;;;12.40;85.10;;;;;;5092031;28;20137;-80
2021/05/09 03:36:48;;;;;;;10.23;3.50;;;12.30;85.10;;;;;;5041275;28;20040;-79
2021/05/09 03:39:14;;;;;;;6.28;3.13;;;12.40;85.30;;;;;;5092608;28;20055;-79
2021/05/09 03:41:39;;;;;;;5.13;3.30;;;12.40;85.30;;;;;;5078088;28;20033;-79
2021/05/09 03:44:06;;;;;;;4.70;3.20;;;12.30;85.30;;;;;;5078947;28;20069;-79
2021/05/09 03:46:31;;;;;;;6.82;3.30;;;12.30;85.30;;;;;;5092746;28;20093;-80
2021/05/09 03:48:57;;;;;;;5.30;2.92;;;12.40;85.40;;;;;;5092730;28;20477;-79
2021/05/09 03:51:23;;;;;;;6.75;3.15;;;12.40;85.30;;;;;;5087200;28;20036;-80
2021/05/09 03:53:48;;;;;;;6.88;3.63;;;12.40;85.30;;;;;;5074610;28;20034;-79
2021/05/09 03:56:14;;;;;;;4.72;3.08;;;12.40;85.30;;;;;;5094916;28;20119;-79
2021/05/09 03:58:40;;;;;;;7.03;3.20;;;12.40;85.30;;;;;;5095932;28;20020;-73
2021/05/09 04:01:05;;;;;;;5.88;3.13;;;12.40;85.30;;;;;;5084237;28;20028;-73
2021/05/09 04:03:31;;;;;;;4.65;3.00;;;12.40;85.30;;;;;;5076368;28;20051;-73
2021/05/09 04:05:58;;;;;;;6.35;3.10;;;12.40;85.30;;;;;;5095872;28;20028;-73
2021/05/09 04:08:27;;;;;;;4.10;2.50;;;12.40;86.00;;;;;;5090820;28;20392;-74
2021/05/09 04:10:56;;;;;;;4.50;2.58;;;12.50;85.40;;;;;;5067578;28;20115;-73
2021/05/09 04:13:22;;;;;;;4.75;3.00;;;12.50;85.40;;;;;;5092006;28;20096;-73
2021/05/09 04:15:49;;;;;;;5.82;2.78;;;12.50;85.20;;;;;;5095194;28;20027;-73
2021/05/09 04:18:14;;;;;;;5.45;2.80;;;12.60;85.20;;;;;;5094498;28;20036;-73
2021/05/09 04:20:40;;;;;;;5.50;2.45;;;12.60;85.10;;;;;;5093232;28;20046;-73
2021/05/09 04:23:10;;;;;;;3.95;2.28;;;12.70;85.00;;;;;;5088096;28;20040;-73
2021/05/09 04:25:36;;;;;;;5.22;2.58;;;12.70;84.80;;;;;;5090668;28;20020;-73
2021/05/09 04:28:02;;;;;;;5.35;2.40;;;12.70;84.60;;;;;;5075404;28;20016;-73
2021/05/09 04:30:28;;;;;;;4.60;2.45;;;12.80;84.50;;;;;;5076756;28;20031;-73
2021/05/09 04:33:02;;;;;;;4.30;2.28;;;12.80;84.40;;;;;;5093907;28;20476;-73
2021/05/09 04:35:27;;;;;;;6.65;2.42;;;12.80;84.40;;;;;;5093396;28;20451;-73
2021/05/09 04:37:53;;;;;;;4.45;2.33;;;12.80;84.30;;;;;;5090223;28;20162;-73
2021/05/09 04:40:19;;;;;;;4.20;2.50;;;12.80;84.20;;;;;;5104669;28;20043;-73
2021/05/09 04:42:45;;;;;;;3.85;2.50;;;12.80;84.10;;;;;;5075367;28;20480;-73
2021/05/09 04:45:12;;;;;;;4.63;2.75;;;12.80;84.10;;;;;;5076139;28;20043;-73
2021/05/09 04:47:37;;;;;;;4.05;2.60;;;12.80;84.10;;;;;;5092057;28;20026;-73
2021/05/09 04:50:04;;;;;;;6.97;2.42;;;12.80;84.10;;;;;;5088394;28;20020;-73
2021/05/09 04:52:30;;;;;;;5.32;2.40;;;12.80;84.10;;;;;;5073377;28;20027;-73
2021/05/09 04:54:55;;;;;;;4.75;2.55;;;12.80;84.00;;;;;;5093071;28;20127;-73
2021/05/09 04:57:21;;;;;;;3.97;2.30;;;12.80;84.00;;;;;;5094418;28;20032;-73
2021/05/09 04:59:47;;;;;;;6.05;2.60;;;12.70;83.90;;;;;;5107010;28;20032;-73
2021/05/09 05:02:12;;;;;;;4.43;2.45;;;12.70;83.90;;;;;;5091887;28;20072;-73
2021/05/09 05:04:38;;;;;;;3.72;2.17;;;12.70;83.80;;;;;;5075844;28;20024;-73
2021/05/09 05:07:03;;;;;;;6.15;2.70;;;12.70;83.90;;;;;;5065804;28;20048;-73
2021/05/09 05:09:29;;;;;;;4.88;2.33;;;12.70;83.90;;;;;;5073025;28;20039;-73
2021/05/09 05:11:56;;;;;;;3.17;2.28;;;12.70;83.80;;;;;;5085750;28;20028;-73
2021/05/09 05:14:22;;;;;;;3.28;2.25;;;12.70;83.80;;;;;;5086322;28;20539;-73
2021/05/09 05:16:47;;;;;;;6.22;2.47;;;12.70;83.70;;;;;;5094060;28;20505;-73
2021/05/09 05:19:13;;;;;;;5.15;2.15;;;12.70;83.60;;;;;;5073674;28;20054;-73
2021/05/09 05:21:39;;;;;;;4.30;1.90;;;12.80;83.50;;;;;;5072183;28;20394;-73
2021/05/09 05:24:05;;;;;;;3.80;2.10;;;12.80;83.40;;;;;;5092973;28;20026;-73
2021/05/09 05:26:30;;;;;;;5.00;2.17;;;12.90;83.30;;;;;;5054547;28;20477;-73
2021/05/09 05:28:56;;;;;;;6.35;2.30;;;12.90;83.00;;;;;;5084826;28;20078;-73
2021/05/09 05:31:21;;;;;;;2.60;2.05;;;13.00;82.90;;;;;;5073960;28;20070;-73
2021/05/09 05:33:47;;;;;;;4.95;2.13;;;13.00;82.60;;;;;;5087606;28;20040;-73
2021/05/09 05:36:13;;;;;;;3.78;2.00;;;13.10;82.40;;;;;;5093389;28;20035;-73
2021/05/09 05:38:38;;;;;;;3.70;2.08;;;13.30;82.10;;;;;;5073021;28;20092;-73
2021/05/09 05:41:04;;;;;;;6.35;2.15;;;13.40;81.70;;;;;;5072317;28;20056;-73
2021/05/09 05:43:31;;;;;;;3.40;1.80;;;13.50;81.20;;;;;;5072892;28;20024;-73
2021/05/09 05:45:59;;;;;;;2.72;1.35;;;13.60;80.90;;;;;;5092896;28;20357;-73
2021/05/09 05:48:26;;;;;;;5.35;1.55;;;13.60;80.30;;;;;;5073814;28;20484;-73
2021/05/09 05:50:52;;;;;;;3.08;1.60;;;13.70;79.90;;;;;;5073502;28;20060;-73
2021/05/09 05:53:19;;;;;;;5.18;1.77;;;13.80;79.50;;;;;;5070377;28;20047;-73
2021/05/09 05:55:46;;;;;;;2.67;1.63;;;13.80;79.20;;;;;;5074311;28;20515;-73
2021/05/09 05:58:13;;;;;;;1.98;1.38;;;13.90;78.90;;;;;;5087890;28;20028;-73
2021/05/09 06:00:38;;;;;;;2.70;1.50;;;14.00;78.60;;;;;;5084601;28;20031;-73
2021/05/09 06:03:04;;;;;;;3.20;1.80;;;14.10;78.40;;;;;;5062326;28;20111;-73
2021/05/09 06:05:30;;;;;;;3.08;1.58;;;14.10;78.00;;;;;;5051942;28;20035;-73
2021/05/09 06:07:55;;;;;;;3.90;1.98;;;14.30;77.70;;;;;;5074728;28;20054;-73
2021/05/09 06:10:21;;;;;;;2.20;1.20;;;14.40;77.30;;;;;;5091250;28;20137;-73
2021/05/09 06:12:47;;;;;;;3.55;1.50;;;14.50;76.90;;;;;;5091417;28;20080;-73
2021/05/09 06:15:13;;;;;;;4.15;1.63;;;14.60;76.50;;;;;;5091785;28;20032;-74
2021/05/09 06:17:41;;;;;;;4.20;1.60;;;14.70;75.80;;;;;;5069317;28;20024;-73
2021/05/09 06:20:07;;;;;;;6.13;1.55;;;14.90;75.50;;;;;;5092092;28;20024;-73
2021/05/09 06:22:32;;;;;;;5.05;1.60;;;15.00;75.00;;;;;;5091796;28;20553;-73
2021/05/09 06:24:58;;;;;;;4.90;1.50;;;15.10;74.80;;;;;;5069571;28;20107;-73
2021/05/09 06:27:23;;;;;;;4.03;1.30;;;15.10;74.70;;;;;;5073201;28;20024;-73
2021/05/09 06:29:49;;;;;;;6.25;1.42;;;15.20;74.50;;;;;;5073931;28;20058;-73
2021/05/09 06:32:15;;;;;;;6.80;1.50;;;15.30;74.40;;;;;;5066035;28;20045;-73
2021/05/09 06:34:43;;;;;;;2.92;1.60;;;15.40;74.00;;;;;;5070183;28;20121;-73
2021/05/09 06:37:12;;;;;;;6.05;1.40;;;15.50;73.60;;;;;;5089474;28;20020;-73
2021/05/09 06:39:39;;;;;;;3.17;1.48;;;15.70;73.30;;;;;;5091890;28;20054;-73
2021/05/09 06:42:06;;;;;;;3.95;1.55;;;15.80;72.90;;;;;;5089543;28;20066;-74
2021/05/09 06:44:35;;;;;;;3.08;1.65;;;16.00;72.40;;;;;;5088429;28;20016;-73
2021/05/09 06:47:01;;;;;;;;;;;16.10;71.80;;;;;;5072264;28;20027;-73
2021/05/09 06:49:31;;;;;;;2.72;1.20;;;16.30;71.40;;;;;;5090010;28;19911;-73
2021/05/09 06:51:57;;;;;;;3.55;1.33;;;16.40;71.10;;;;;;5056835;28;20388;-73
2021/05/09 06:54:26;;;;;;;3.35;1.15;;;16.60;70.20;;;;;;5072914;28;20035;-73
2021/05/09 06:56:55;;;;;;;4.57;1.38;;;16.70;69.30;;;;;;5078811;28;20480;-73
2021/05/09 06:59:20;;;;;;;6.03;1.20;;;16.80;69.20;;;;;;5095260;28;20089;-73
2021/05/09 07:01:46;;;;;;;2.80;0.98;;;16.90;68.90;;;;;;5055665;28;20032;-73
2021/05/09 07:04:12;;;;;;;5.80;1.13;;;17.00;69.10;;;;;;5067511;28;20099;-73
2021/05/09 07:06:38;;;;;;;4.75;1.35;;;17.20;68.40;;;;;;5072679;28;20124;-73
2021/05/09 07:09:06;;;;;;;3.15;1.20;;;17.40;67.90;;;;;;5088137;28;20117;-74
2021/05/09 07:11:32;;;;;;;2.90;1.23;;;17.50;67.50;;;;;;5082831;28;20028;-74
2021/05/09 07:13:58;;;;;;;3.67;1.00;;;17.60;67.20;;;;;;5089088;28;20115;-73
2021/05/09 07:16:25;;;;;;;8.30;1.40;;;17.80;67.30;;;;;;5083076;28;20107;-73
2021/05/09 07:18:51;;;;;;;4.80;1.60;;;17.90;67.00;;;;;;5074164;28;20036;-80
2021/05/09 07:21:22;;;;;;;3.63;1.10;;;18.10;66.70;;;;;;5092749;28;20078;-81
2021/05/09 07:23:48;;;;;;;3.85;1.25;;;18.30;66.30;;;;;;5076155;28;20476;-80
2021/05/09 07:26:14;;;;;;;5.15;1.15;;;18.40;65.70;;;;;;5103739;28;20024;-81
2021/05/09 07:28:41;;;;;;;2.45;1.08;;;18.50;65.40;;;;;;5096097;28;20020;-81
2021/05/09 07:31:07;;;;;;;8.25;2.13;;;18.60;65.20;;;;;;5098794;28;20052;-80
2021/05/09 07:33:32;;;;;;;7.28;1.50;;;18.70;64.80;;;;;;5092436;28;20067;-80
2021/05/09 07:35:59;;;;;;;3.58;1.58;;;18.90;64.60;;;;;;5089926;28;20032;-79
2021/05/09 07:38:24;;;;;;;2.15;1.05;;;19.00;64.20;;;;;;5081976;28;20052;-80
2021/05/09 07:40:50;;;;;;;5.18;1.25;;;19.00;64.60;;;;;;5097302;28;20400;-81
2021/05/09 07:43:16;;;;;;;5.57;1.23;;;18.90;65.00;;;;;;5078291;28;20019;-80
2021/05/09 07:45:43;;;;;;;3.80;1.25;;;18.90;65.10;;;;;;5074620;28;20104;-80
2021/05/09 07:48:09;;;;;;;2.28;1.30;;;18.90;66.30;;;;;;5062157;28;20389;-80
2021/05/09 07:50:36;;;;;;;3.72;1.45;;;19.10;65.80;;;;;;5071628;28;20031;-81
2021/05/09 07:53:02;;;;;;;3.45;1.25;;;19.30;65.30;;;;;;5111751;28;20039;-82
2021/05/09 07:55:27;;;;;;;4.22;1.40;;;19.40;64.90;;;;;;5086628;28;20031;-80
2021/05/09 07:57:53;;;;;;;3.10;1.45;;;19.40;64.90;;;;;;5094695;28;20062;-80
2021/05/09 08:00:20;;;;;;;2.85;1.15;;;19.40;65.00;;;;;;5096834;28;20024;-80
2021/05/09 08:02:48;;;;;;;4.60;1.13;;;19.30;65.30;;;;;;5088771;28;20529;-80
2021/05/09 08:05:15;;;;;;;5.55;1.17;;;19.30;65.80;;;;;;5096429;28;20477;-81
2021/05/09 08:07:55;;;;;;;4.10;1.60;;;19.30;65.80;;;;;;5089486;28;20419;-81
2021/05/09 08:10:22;;;;;;;6.85;1.48;;;19.20;66.10;;;;;;5091009;28;20032;-81
2021/05/09 08:12:48;;;;;;;2.95;1.40;;;19.30;66.20;;;;;;5074087;28;20062;-81
2021/05/09 08:15:15;;;;;;;4.55;1.30;;;19.50;65.90;;;;;;5078758;28;20151;-81
2021/05/09 08:17:40;;;;;;;2.60;1.40;;;19.70;65.50;;;;;;5093584;28;20030;-81
2021/05/09 08:20:07;;;;;;;3.00;1.48;;;20.00;64.90;;;;;;5089362;28;20058;-82
2021/05/09 08:22:36;;;;;;;2.28;1.55;;;20.30;64.10;;;;;;5093790;28;20020;-80
2021/05/09 08:25:02;;;;;;;5.15;1.55;;;20.50;63.30;;;;;;5089164;28;20029;-80
2021/05/09 08:27:30;;;;;;;4.90;1.30;;;20.80;62.40;;;;;;5095573;28;20481;-81
2021/05/09 08:29:56;;;;;;;3.17;1.60;;;21.00;61.70;;;;;;5095991;28;20099;-81
2021/05/09 08:32:22;;;;;;;5.57;1.40;;;21.10;61.30;;;;;;5087337;28;20051;-81
2021/05/09 08:34:48;;;;;;;5.18;1.30;;;21.10;61.00;;;;;;5095072;28;20492;-82
2021/05/09 08:37:14;;;;;;;4.22;1.13;;;21.10;61.30;;;;;;5096054;28;20031;-81
2021/05/09 08:39:40;;;;;;;3.60;1.60;;;21.10;61.30;;;;;;5074382;28;20147;-81
2021/05/09 08:42:06;;;;;;;3.05;1.17;;;21.00;61.60;;;;;;5095354;28;20384;-82
2021/05/09 08:44:34;;;;;;;3.72;1.40;;;20.80;62.20;;;;;;5090737;28;20028;-81
2021/05/09 08:47:00;;;;;;;3.00;1.33;;;20.80;63.00;;;;;;5075994;28;20025;-82
2021/05/09 08:49:28;;;;;;;2.15;1.08;;;21.00;62.80;;;;;;5075784;28;20024;-81
2021/05/09 08:51:54;;;;;;;3.05;1.13;;;21.30;62.50;;;;;;5075753;28;20036;-81
2021/05/09 08:54:20;;;;;;;4.47;1.30;;;21.60;61.90;;;;;;5075664;28;20036;-82
2021/05/09 08:56:45;;;;;;;4.35;1.60;;;21.90;61.00;;;;;;5057709;28;20469;-82
2021/05/09 08:59:11;;;;;;;6.90;1.42;;;22.10;60.00;;;;;;5075448;28;20029;-82
2021/05/09 09:01:40;;;;;;;2.53;1.48;;;22.30;59.60;;;;;;5075519;28;20078;-82
2021/05/09 09:04:06;;;;;;;3.13;1.45;;;22.40;58.90;;;;;;5074704;28;20021;-82
2021/05/09 09:06:41;;;;;;;5.13;1.30;;;22.30;59.00;;;;;;5091040;28;20067;-82
2021/05/09 09:09:21;;;;;;;3.13;1.35;;;22.40;59.20;;;;;;5057401;28;20031;-82
2021/05/09 09:12:00;;;;;;;2.63;1.40;;;22.50;59.50;;;;;;5075448;28;20016;-82
2021/05/09 09:14:26;;;;;;;;;;;22.70;59.30;;;;;;5075784;28;20074;-82
2021/05/09 09:17:14;;;;;;;2.92;1.08;;;22.90;58.80;;;;;;5075344;28;19904;-82
2021/05/09 09:20:08;;;;;;;1.42;1.17;;;23.10;57.90;;;;;;5075256;28;20020;-82
2021/05/09 09:22:56;;;;;;;3.35;1.27;;;23.30;56.80;;;;;;5075185;28;20477;-81
2021/05/09 09:25:33;;;;;;;2.60;1.40;;;23.40;56.80;;;;;;5075474;28;20024;-82
2021/05/09 09:27:59;;;;;;;4.45;1.33;;;23.50;56.80;;;;;;5057213;28;20269;-82
2021/05/09 09:30:27;;;;;;;4.88;1.45;;;23.40;56.50;;;;;;5074942;28;20439;-82
2021/05/09 09:33:13;;;;;;;3.38;1.45;;;23.20;56.90;;;;;;5075049;28;20079;-82
2021/05/09 09:35:40;;;;;;;4.72;1.55;;;23.20;57.80;;;;;;5056990;28;20370;-82
2021/05/09 09:38:25;;;;;;;5.03;1.38;;;23.40;57.80;;;;;;5074668;28;20072;-81
2021/05/09 09:41:15;;;;;;;2.53;1.40;;;23.80;57.10;;;;;;5074743;28;20388;-82
2021/05/09 09:44:02;;;;;;;2.97;1.30;;;23.80;57.50;;;;;;5077070;28;20025;-82
2021/05/09 09:46:30;;;;;;;4.93;1.20;;;23.80;57.60;;;;;;5095080;28;20065;-82
2021/05/09 09:48:56;;;;;;;3.70;1.45;;;23.50;56.70;;;;;;5094948;28;20525;-82
2021/05/09 09:51:22;;;;;;;3.95;1.30;;;23.30;57.30;;;;;;5094519;28;20028;-82
2021/05/09 09:53:48;;;;;;;3.47;1.30;;;23.30;58.30;;;;;;5092925;28;20058;-82
2021/05/09 09:56:32;;;;;;;2.78;1.30;;;23.40;57.40;;;;;;5094834;28;20530;-82
2021/05/09 09:59:02;;;;;;;3.85;1.13;;;23.50;57.80;;;;;;5094733;28;20032;-82
2021/05/09 10:01:36;;;;;;;2.35;1.15;;;23.70;57.00;;;;;;5094616;28;20020;-82
2021/05/09 10:04:04;;;;;;;2.97;1.15;;;23.90;57.20;;;;;;5094684;28;20101;-82
2021/05/09 10:06:31;;;;;;;2.65;1.50;;;24.00;56.90;;;;;;5094545;28;20023;-82
2021/05/09 10:09:00;;;;;;;2.40;1.38;;;24.20;57.00;;;;;;5076377;28;20035;-82
2021/05/09 10:11:28;;;;;;;4.35;1.30;;;24.50;56.00;;;;;;5094615;28;20043;-82
2021/05/09 10:13:54;;;;;;;2.25;1.30;;;24.60;54.70;;;;;;5094393;28;20035;-83
2021/05/09 10:16:22;;;;;;;4.75;1.45;;;24.70;54.50;;;;;;5094435;28;20032;-82
2021/05/09 10:18:50;;;;;;;5.57;1.40;;;24.70;53.80;;;;;;5094460;28;20387;-82
2021/05/09 10:21:16;;;;;;;;;;;24.80;54.10;;;;;;5094802;28;20028;-82
2021/05/09 10:24:06;;;;;;;3.33;1.50;;;25.00;54.40;;;;;;5110014;28;19915;-82
2021/05/09 10:26:32;;;;;;;1.77;1.10;;;25.10;53.70;;;;;;5094371;28;20095;-82
2021/05/09 10:28:57;;;;;;;3.55;1.40;;;25.10;53.30;;;;;;5094180;28;20068;-82
2021/05/09 10:31:27;;;;;;;3.72;1.30;;;25.00;54.00;;;;;;5093977;28;20252;-82
2021/05/09 10:33:53;;;;;;;2.55;1.40;;;25.00;53.90;;;;;;5092303;28;20476;-80
2021/05/09 10:36:19;;;;;;;4.97;1.20;;;25.00;53.20;;;;;;5093455;28;20431;-80
2021/05/09 10:39:23;;;;;;;3.88;1.20;;;25.00;53.40;;;;;;5093090;28;20036;-80
2021/05/09 10:41:55;;;;;;;3.30;1.17;;;25.10;53.60;;;;;;5095868;28;20031;-80
2021/05/09 10:44:41;;;;;;;2.78;1.50;;;25.20;53.50;;;;;;5083691;28;20028;-80
2021/05/09 10:47:16;;;;;;;2.10;1.20;;;25.40;52.50;;;;;;5075730;28;20020;-80
2021/05/09 10:50:20;;;;;;;2.33;1.50;;;25.40;52.60;;;;;;5075663;28;20039;-80
2021/05/09 10:52:47;;;;;;;4.65;1.40;;;25.50;52.90;;;;;;5075483;28;20031;-80
2021/05/09 10:55:42;;;;;;;6.13;1.48;;;25.70;53.10;;;;;;5075760;28;20024;-81
2021/05/09 10:58:12;;;;;;;2.63;1.20;;;26.00;51.70;;;;;;5085030;28;20035;-80
2021/05/09 11:00:57;;;;;;;4.30;1.30;;;26.30;51.90;;;;;;5093230;28;20024;-80
2021/05/09 11:03:35;;;;;;;2.10;1.30;;;26.50;51.10;;;;;;5093304;28;20020;-81
2021/05/09 11:06:14;;;;;;;2.67;1.23;;;26.70;51.40;;;;;;5093545;28;20048;-80
2021/05/09 11:08:42;;;;;;;1.38;0.90;;;26.90;50.40;;;;;;5093561;28;20028;-80
2021/05/09 11:11:11;;;;;;;;;;;26.90;48.40;;;;;;5094099;28;20032;-80
2021/05/09 11:16:29;;;;;;;2.40;1.10;;;27.00;49.30;;;;;;5093261;28;20384;-80
2021/05/09 11:19:09;;;;;;;1.75;1.30;;;27.10;48.80;;;;;;5093340;28;20452;-81
2021/05/09 11:21:38;;;;;;;5.60;1.20;;;27.20;47.80;;;;;;5093503;28;20028;-80
2021/05/09 11:24:08;;;;;;;5.00;1.30;;;27.30;48.10;;;;;;5093520;28;20601;-81
2021/05/09 11:26:43;;;;;;;2.67;1.13;;;27.40;47.50;;;;;;5075462;28;20029;-80
2021/05/09 11:29:20;;;;;;;5.93;1.35;;;27.50;47.40;;;;;;5093285;28;20506;-80
2021/05/09 11:31:48;;;;;;;6.35;1.48;;;27.60;47.00;;;;;;5093309;28;20480;-81
2021/05/09 11:34:15;;;;;;;4.50;1.48;;;27.60;47.00;;;;;;5093245;28;20541;-81
2021/05/09 11:36:43;;;;;;;2.60;1.20;;;27.70;46.60;;;;;;5093125;28;20055;-81
2021/05/09 11:39:12;;;;;;;4.30;1.50;;;27.80;46.30;;;;;;5093243;28;20440;-81
2021/05/09 11:42:15;;;;;;;5.32;0.90;;;27.90;46.10;;;;;;5074971;28;20040;-80
2021/05/09 11:44:48;;;;;;;10.07;1.58;;;27.90;46.60;;;;;;5083272;28;20400;-80
2021/05/09 11:47:22;;;;;;;3.53;1.13;;;27.90;46.00;;;;;;5093242;28;20095;-80
2021/05/09 11:49:49;;;;;;;3.58;1.45;;;28.00;45.90;;;;;;5093215;28;20024;-80
2021/05/09 11:52:19;;;;;;;5.75;1.27;;;27.90;45.80;;;;;;5093568;28;20025;-80
2021/05/09 11:55:04;;;;;;;4.30;0.90;;;27.80;45.30;;;;;;5093026;28;20051;-80
2021/05/09 11:57:31;;;;;;;8.07;1.20;;;27.70;45.70;;;;;;5093077;28;20051;-81
2021/05/09 12:00:04;;;;;;;4.90;1.42;;;27.60;46.10;;;;;;5093153;28;20107;-81
2021/05/09 12:02:35;;;;;;;2.17;1.08;;;27.60;45.60;;;;;;5093162;28;20122;-80
2021/05/09 12:05:08;;;;;;;4.68;1.10;;;27.50;44.90;;;;;;5093038;28;20017;-80
2021/05/09 12:07:51;;;;;;;3.85;1.02;;;27.50;45.80;;;;;;5093461;28;20020;-81
2021/05/09 12:10:34;;;;;;;4.93;1.17;;;27.60;46.50;;;;;;5093033;28;20089;-80
2021/05/09 12:13:06;;;;;;;6.60;1.40;;;27.80;47.40;;;;;;5092939;28;20107;-80
2021/05/09 12:15:37;;;;;;;3.50;1.38;;;27.90;45.60;;;;;;5093652;28;20111;-80
2021/05/09 12:18:03;;;;;;;13.40;1.80;;;28.00;45.90;;;;;;5096759;28;20054;-80
2021/05/09 12:20:34;;;;;;;6.25;1.23;;;28.10;45.50;;;;;;5096717;28;20020;-81
2021/05/09 12:23:20;;;;;;;5.00;1.38;;;28.50;46.20;;;;;;5096663;28;20508;-81
2021/05/09 12:25:48;;;;;;;2.90;1.10;;;28.80;44.80;;;;;;5085491;28;20040;-81
2021/05/09 12:28:20;;;;;;;5.30;1.15;;;28.90;44.50;;;;;;5082109;28;20025;-80
2021/05/09 12:30:48;;;;;;;3.42;1.08;;;28.90;43.40;;;;;;5076254;28;20107;-80
2021/05/09 12:33:31;;;;;;;5.93;1.42;;;28.80;44.50;;;;;;5076182;28;20543;-81
2021/05/09 12:35:58;;;;;;;1.45;1.10;;;28.60;44.20;;;;;;5091853;28;20131;-81
2021/05/09 12:38:34;;;;;;;7.13;1.45;;;28.30;46.00;;;;;;5091569;28;20084;-81
2021/05/09 12:41:03;;;;;;;9.13;1.42;;;28.10;45.10;;;;;;5076050;28;20044;-81
2021/05/09 12:43:49;;;;;;;3.28;1.15;;;28.00;45.60;;;;;;5057951;28;20489;-80
2021/05/09 12:46:33;;;;;;;6.78;1.30;;;27.80;45.80;;;;;;5076029;28;20033;-81
2021/05/09 12:49:19;;;;;;;3.00;1.55;;;27.70;45.50;;;;;;5076064;28;20368;-81
2021/05/09 12:51:49;;;;;;;6.07;1.20;;;27.50;45.70;;;;;;5075849;28;20029;-81
2021/05/09 12:54:45;;;;;;;2.58;1.00;;;27.40;47.20;;;;;;5075662;28;20020;-81
2021/05/09 12:57:13;;;;;;;5.28;1.10;;;27.20;46.80;;;;;;5075409;28;20054;-81